Time;durP1;ratioP1;P1;durP2;ratioP2;P2;SDS_P1;SDS_P2;PMS_P1;PMS_P2;Temp;Humidity;BMP_temperature;BMP_pressure;BME280_temperature;BME280_humidity;BME280_pressure;Samples;Min_cycle;Max_cycle;Signal;HPM_P1;HPM_P2
2024/01/02 00:02:01;;;;;;;4.53;0.80;;;7.40;99.90;;;;;;5053838;28;20540;-43
2024/01/02 00:04:27;;;;;;;3.17;1.10;;;7.40;99.90;;;;;;5054112;28;20251;-42
2024/01/02 00:06:56;;;;;;;3.33;0.70;;;7.50;99.90;;;;;;5053744;28;20164;-44
2024/01/02 00:09:25;;;;;;;3.57;0.93;;;7.50;99.90;;;;;;5053827;28;20179;-45
2024/01/02 00:11:54;;;;;;;3.83;0.80;;;7.50;99.90;;;;;;5053678;28;20230;-43
2024/01/02 00:14:19;;;;;;;2.43;0.73;;;7.50;99.90;;;;;;5053946;28;20178;-43
2024/01/02 00:16:46;;;;;;;4.87;0.87;;;7.50;99.90;;;;;;5053617;28;20181;-44
2024/01/02 00:19:16;;;;;;;5.07;1.27;;;7.40;99.90;;;;;;5035980;28;20184;-42
2024/01/02 00:21:46;;;;;;;3.20;0.90;;;7.40;99.90;;;;;;5053465;28;20188;-43
2024/01/02 00:24:12;;;;;;;3.60;1.00;;;7.40;99.90;;;;;;5054097;28;20184;-43
2024/01/02 00:26:38;;;;;;;4.00;0.70;;;7.40;99.90;;;;;;5054061;28;20172;-44
2024/01/02 00:29:09;;;;;;;3.33;0.63;;;7.40;99.90;;;;;;5035861;28;20259;-43
2024/01/02 00:31:35;;;;;;;3.87;1.10;;;7.40;99.90;;;;;;5053348;28;20739;-43
2024/01/02 00:34:00;;;;;;;3.17;0.70;;;7.40;99.90;;;;;;5053332;28;20208;-44
2024/01/02 00:36:33;;;;;;;1.73;1.13;;;7.40;99.90;;;;;;5053369;28;20180;-43
2024/01/02 00:38:59;;;;;;;3.43;0.77;;;7.40;99.90;;;;;;5053165;28;20213;-44
2024/01/02 00:42:03;;;;;;;5.87;0.77;;;7.40;99.90;;;;;;5053306;28;20212;-43
2024/01/02 00:44:44;;;;;;;3.23;0.67;;;7.40;99.90;;;;;;5053199;28;20172;-43
2024/01/02 00:47:10;;;;;;;1.27;0.67;;;7.40;99.90;;;;;;5053388;28;20182;-44
2024/01/02 00:49:35;;;;;;;1.53;0.70;;;7.30;99.90;;;;;;5053398;28;20172;-43
2024/01/02 00:52:01;;;;;;;0.77;0.50;;;7.40;99.90;;;;;;5053892;28;20276;-43
2024/01/02 00:54:36;;;;;;;2.30;0.70;;;7.40;99.90;;;;;;5056013;28;20208;-44
2024/01/02 00:57:01;;;;;;;1.33;0.40;;;7.30;99.90;;;;;;5060445;28;20199;-43
2024/01/02 00:59:27;;;;;;;0.93;0.57;;;7.40;99.90;;;;;;5062026;28;20230;-42
2024/01/02 01:01:53;;;;;;;1.50;0.70;;;7.30;99.90;;;;;;5045124;28;20259;-43
2024/01/02 01:04:23;;;;;;;1.03;0.50;;;7.30;99.90;;;;;;5059771;28;20176;-43
2024/01/02 01:06:49;;;;;;;4.10;0.60;;;7.30;99.90;;;;;;5058609;28;20160;-44
2024/01/02 01:09:14;;;;;;;1.90;0.70;;;7.30;99.90;;;;;;5039598;28;20641;-43
2024/01/02 01:11:40;;;;;;;2.17;0.67;;;7.30;99.90;;;;;;5057279;28;20205;-42
2024/01/02 01:14:06;;;;;;;0.73;0.67;;;7.30;99.90;;;;;;5057200;28;20184;-44
2024/01/02 01:16:37;;;;;;;1.07;0.57;;;7.20;99.90;;;;;;5057668;28;20492;-42
2024/01/02 01:19:05;;;;;;;2.13;0.57;;;7.30;99.90;;;;;;5057579;28;20308;-43
2024/01/02 01:21:31;;;;;;;4.07;0.93;;;7.30;99.90;;;;;;5056858;28;20283;-43
2024/01/02 01:24:00;;;;;;;2.83;0.60;;;7.30;99.90;;;;;;5039501;28;20267;-42
2024/01/02 01:26:31;;;;;;;1.57;0.70;;;7.20;99.90;;;;;;5039156;28;20223;-43
2024/01/02 01:28:57;;;;;;;1.03;0.50;;;7.20;99.90;;;;;;5057105;28;20219;-42
2024/01/02 01:31:23;;;;;;;5.53;0.60;;;7.20;99.90;;;;;;5039013;28;20204;-43
2024/01/02 01:33:49;;;;;;;1.20;0.40;;;7.20;99.90;;;;;;5039277;28;20180;-44
2024/01/02 01:36:14;;;;;;;0.47;0.40;;;7.20;99.90;;;;;;5039033;28;20711;-43
2024/01/02 01:38:42;;;;;;;0.30;0.30;;;7.20;99.90;;;;;;5056703;28;20208;-44
2024/01/02 01:41:10;;;;;;;0.70;0.30;;;7.20;99.90;;;;;;5057381;28;20196;-42
2024/01/02 01:43:39;;;;;;;0.73;0.30;;;7.20;99.90;;;;;;5056496;28;20176;-43
2024/01/02 01:46:07;;;;;;;1.30;0.50;;;7.20;99.90;;;;;;5056757;28;20557;-41
2024/01/02 01:48:34;;;;;;;0.43;0.30;;;7.20;99.90;;;;;;5056578;28;20203;-42
2024/01/02 01:51:01;;;;;;;0.60;0.30;;;7.20;99.90;;;;;;5022137;28;20218;-42
2024/01/02 01:53:29;;;;;;;0.27;0.27;;;7.20;99.90;;;;;;5056092;28;20192;-46
2024/01/02 01:56:21;;;;;;;0.37;0.37;;;7.20;99.90;;;;;;5056140;28;20215;-42
2024/01/02 01:58:47;;;;;;;1.03;0.30;;;7.20;99.90;;;;;;5056488;28;20193;-42
2024/01/02 02:01:13;;;;;;;0.70;0.40;;;7.20;99.90;;;;;;5038424;28;20290;-44
2024/01/02 02:04:14;;;;;;;0.57;0.30;;;7.20;99.90;;;;;;5056207;28;20221;-43
2024/01/02 02:06:39;;;;;;;0.53;0.40;;;7.20;99.90;;;;;;5054883;28;20180;-44
2024/01/02 02:09:45;;;;;;;0.43;0.40;;;7.20;99.90;;;;;;5056120;28;20177;-42
2024/01/02 02:12:14;;;;;;;0.30;0.30;;;7.20;99.90;;;;;;5056220;28;20191;-43
2024/01/02 02:14:40;;;;;;;0.10;0.10;;;7.10;99.90;;;;;;5055838;28;20302;-43
2024/01/02 02:17:07;;;;;;;0.27;0.27;;;7.10;99.90;;;;;;5038052;28;20207;-41
2024/01/02 02:19:33;;;;;;;2.57;0.40;;;7.10;99.90;;;;;;5056241;28;20176;-42
2024/01/02 02:22:01;;;;;;;0.43;0.40;;;7.10;99.90;;;;;;5055796;28;20176;-43
2024/01/02 02:24:30;;;;;;;0.97;0.30;;;7.10;99.90;;;;;;5055659;28;20172;-44
2024/01/02 02:27:00;;;;;;;2.43;0.30;;;7.10;99.90;;;;;;5038145;28;20546;-44
2024/01/02 02:29:28;;;;;;;2.17;0.20;;;7.00;99.90;;;;;;5021459;28;20238;-42
2024/01/02 02:31:53;;;;;;;0.20;0.20;;;7.10;99.90;;;;;;5056039;28;20195;-43
2024/01/02 02:34:21;;;;;;;0.67;0.30;;;7.10;99.90;;;;;;5055545;28;20180;-43
2024/01/02 02:36:46;;;;;;;0.10;0.10;;;7.00;99.90;;;;;;5037578;28;20177;-44
2024/01/02 02:42:35;;;;;;;2.30;0.20;;;7.00;99.90;;;;;;5055482;28;20575;-44
2024/01/02 02:45:02;;;;;;;1.20;0.30;;;7.00;99.90;;;;;;5055475;28;20683;-41
2024/01/02 02:47:28;;;;;;;0.17;0.17;;;7.00;99.90;;;;;;5055548;28;20656;-44
2024/01/02 02:49:54;;;;;;;0.20;0.20;;;7.00;99.90;;;;;;5038345;28;20200;-44
2024/01/02 02:52:23;;;;;;;0.63;0.20;;;7.00;99.90;;;;;;5055822;28;20311;-43
2024/01/02 02:54:50;;;;;;;0.97;0.43;;;7.00;99.90;;;;;;5055860;28;20163;-44
2024/01/02 02:57:15;;;;;;;4.17;0.30;;;7.00;99.90;;;;;;5055255;28;20212;-42
2024/01/02 02:59:42;;;;;;;2.27;0.37;;;7.00;99.90;;;;;;5037335;28;20204;-43
2024/01/02 03:02:11;;;;;;;1.03;0.37;;;7.00;99.90;;;;;;5037537;28;20203;-41
2024/01/02 03:04:38;;;;;;;0.40;0.20;;;7.00;99.90;;;;;;5055873;28;20694;-42
2024/01/02 03:07:04;;;;;;;0.30;0.20;;;7.00;99.90;;;;;;5037137;28;20181;-42
2024/01/02 03:09:29;;;;;;;0.87;0.30;;;7.00;99.90;;;;;;5055015;28;20199;-43
2024/01/02 03:11:55;;;;;;;3.27;0.40;;;7.00;99.90;;;;;;5055126;28;20180;-43
2024/01/02 03:14:21;;;;;;;1.27;0.30;;;7.00;99.90;;;;;;5054800;28;20267;-44
2024/01/02 03:16:53;;;;;;;1.73;0.20;;;7.00;99.90;;;;;;5054423;28;20212;-43
2024/01/02 03:19:27;;;;;;;0.77;0.40;;;7.00;99.90;;;;;;5054724;28;20184;-42
2024/01/02 03:25:19;;;;;;;0.23;0.23;;;7.00;99.90;;;;;;5054583;28;20163;-44
2024/01/02 03:27:47;;;;;;;1.33;0.20;;;7.00;99.90;;;;;;5054810;28;20173;-43
2024/01/02 03:30:14;;;;;;;0.23;0.23;;;7.00;99.90;;;;;;5054681;28;20277;-44
2024/01/02 03:32:39;;;;;;;0.67;0.30;;;7.00;99.90;;;;;;5037239;28;20176;-43
2024/01/02 03:35:42;;;;;;;0.33;0.33;;;7.10;99.90;;;;;;5056002;28;20211;-42
2024/01/02 03:38:08;;;;;;;0.27;0.27;;;7.10;99.90;;;;;;5053967;28;20302;-41
2024/01/02 03:40:33;;;;;;;0.30;0.30;;;7.10;99.90;;;;;;5054442;28;20290;-43
2024/01/02 03:43:00;;;;;;;2.17;0.40;;;7.10;99.90;;;;;;5036397;28;20184;-43
2024/01/02 03:45:26;;;;;;;1.30;0.30;;;7.20;99.90;;;;;;5036267;28;20234;-43
2024/01/02 03:48:04;;;;;;;1.67;0.40;;;7.20;99.90;;;;;;5054151;28;20255;-42
2024/01/02 03:50:30;;;;;;;0.53;0.40;;;7.20;99.90;;;;;;5054825;28;20200;-42
2024/01/02 03:52:56;;;;;;;0.20;0.20;;;7.30;99.90;;;;;;5053972;28;20207;-43
2024/01/02 03:55:21;;;;;;;0.53;0.20;;;7.30;99.90;;;;;;5054252;28;20194;-42
2024/01/02 03:57:47;;;;;;;0.30;0.20;;;7.30;99.90;;;;;;5053796;28;20719;-42
2024/01/02 04:00:13;;;;;;;0.47;0.30;;;7.30;99.90;;;;;;5053993;28;20192;-42
2024/01/02 04:02:39;;;;;;;3.73;0.30;;;7.50;99.90;;;;;;5053842;28;20188;-44
2024/01/02 04:05:07;;;;;;;0.10;0.10;;;7.50;99.90;;;;;;5036436;28;20180;-43
2024/01/02 04:07:32;;;;;;;0.20;0.20;;;7.50;99.90;;;;;;5053157;28;20246;-43
2024/01/02 04:10:00;;;;;;;2.03;0.23;;;7.60;99.90;;;;;;5053914;28;20205;-42
2024/01/02 04:12:25;;;;;;;0.67;0.23;;;7.70;99.90;;;;;;5053780;28;20662;-42
2024/01/02 04:14:54;;;;;;;0.20;0.20;;;7.70;99.90;;;;;;5053668;28;20185;-44
2024/01/02 04:17:27;;;;;;;0.20;0.20;;;7.80;99.90;;;;;;5035746;28;20192;-44
2024/01/02 04:19:57;;;;;;;1.40;0.17;;;7.90;99.90;;;;;;5053810;28;20189;-43
2024/01/02 04:22:23;;;;;;;2.80;0.20;;;8.00;99.90;;;;;;5054144;28;20153;-42
2024/01/02 04:24:52;;;;;;;0.10;0.10;;;8.00;99.90;;;;;;5053568;28;20175;-43
2024/01/02 04:27:18;;;;;;;0.10;0.10;;;8.10;99.90;;;;;;5053965;28;20188;-43
2024/01/02 04:29:47;;;;;;;0.20;0.20;;;8.20;99.90;;;;;;5052768;28;20539;-44
2024/01/02 04:32:17;;;;;;;0.20;0.20;;;8.30;99.90;;;;;;5053733;28;20568;-44
2024/01/02 04:34:50;;;;;;;0.20;0.20;;;8.30;99.90;;;;;;5053636;28;20164;-42
2024/01/02 04:37:16;;;;;;;0.30;0.20;;;8.40;99.90;;;;;;5053566;28;20214;-43
2024/01/02 04:39:41;;;;;;;0.20;0.20;;;8.50;99.90;;;;;;5053553;28;20673;-45
2024/01/02 04:42:10;;;;;;;0.10;0.10;;;8.60;99.90;;;;;;5053249;28;20271;-44
2024/01/02 04:44:36;;;;;;;0.10;0.10;;;8.70;99.90;;;;;;5053411;28;20174;-43
2024/01/02 04:47:05;;;;;;;0.40;0.40;;;8.90;99.90;;;;;;5053176;28;20176;-43
2024/01/02 04:49:30;;;;;;;0.17;0.17;;;9.00;99.90;;;;;;5053089;28;20234;-45
2024/01/02 04:51:56;;;;;;;0.10;0.10;;;9.10;99.90;;;;;;5052956;28;20196;-47
2024/01/02 04:54:32;;;;;;;0.20;0.20;;;9.20;99.90;;;;;;5053111;28;20184;-48
2024/01/02 04:56:58;;;;;;;2.33;0.40;;;9.20;99.90;;;;;;5053207;28;20177;-47
2024/01/02 04:59:29;;;;;;;0.13;0.13;;;9.30;99.90;;;;;;5035416;28;20178;-48
2024/01/02 05:01:55;;;;;;;0.20;0.20;;;9.30;99.90;;;;;;5037269;28;20233;-48
2024/01/02 05:04:21;;;;;;;0.10;0.10;;;9.30;99.90;;;;;;5037107;28;20656;-49
2024/01/02 05:06:46;;;;;;;0.20;0.20;;;9.40;99.90;;;;;;5054305;28;20173;-47
2024/01/02 05:09:21;;;;;;;0.10;0.10;;;9.40;99.90;;;;;;5053263;28;20551;-48
2024/01/02 05:11:48;;;;;;;0.10;0.10;;;9.40;99.90;;;;;;5035674;28;20184;-49
2024/01/02 05:14:19;;;;;;;0.10;0.10;;;9.50;99.90;;;;;;5053214;28;20189;-42
2024/01/02 05:16:49;;;;;;;0.20;0.20;;;9.50;99.90;;;;;;5053366;28;20168;-43
2024/01/02 05:19:18;;;;;;;0.10;0.10;;;9.50;99.90;;;;;;5052729;28;20207;-45
2024/01/02 05:21:43;;;;;;;0.10;0.10;;;9.50;99.90;;;;;;5053172;28;20291;-41
2024/01/02 05:24:09;;;;;;;0.73;0.20;;;9.50;99.90;;;;;;5035136;28;20674;-43
2024/01/02 05:26:35;;;;;;;0.13;0.13;;;9.60;99.90;;;;;;5052747;28;20190;-42
2024/01/02 05:29:01;;;;;;;0.10;0.10;;;9.60;99.90;;;;;;5052839;28;20190;-41
2024/01/02 05:31:26;;;;;;;0.10;0.10;;;9.60;99.90;;;;;;5052750;28;20207;-42
2024/01/02 05:33:54;;;;;;;0.20;0.20;;;9.60;99.90;;;;;;5053312;28;20185;-42
2024/01/02 05:36:22;;;;;;;0.13;0.13;;;9.60;99.90;;;;;;5035169;28;20181;-42
2024/01/02 05:38:48;;;;;;;0.20;0.20;;;9.70;99.90;;;;;;5052808;28;20217;-42
2024/01/02 05:41:13;;;;;;;0.23;0.20;;;9.70;99.90;;;;;;5055829;28;20194;-43
2024/01/02 05:43:40;;;;;;;0.20;0.20;;;9.70;99.90;;;;;;5039565;28;20189;-42
2024/01/02 05:46:06;;;;;;;5.23;0.40;;;9.80;99.90;;;;;;5056533;28;20247;-43
2024/01/02 05:48:32;;;;;;;0.20;0.20;;;9.80;99.90;;;;;;5038796;28;20212;-43
2024/01/02 05:50:57;;;;;;;0.20;0.20;;;9.80;99.90;;;;;;5056242;28;20206;-43
2024/01/02 05:53:24;;;;;;;0.20;0.20;;;9.80;99.90;;;;;;5021858;28;20212;-43
2024/01/02 05:55:50;;;;;;;0.30;0.20;;;9.80;99.90;;;;;;5056890;28;20236;-42
2024/01/02 05:58:17;;;;;;;0.30;0.20;;;9.90;99.90;;;;;;5056083;28;20598;-43
2024/01/02 06:00:43;;;;;;;0.73;0.20;;;9.90;99.90;;;;;;5038648;28;20294;-42
2024/01/02 06:03:08;;;;;;;0.20;0.20;;;9.90;99.90;;;;;;5056382;28;20211;-43
2024/01/02 06:05:34;;;;;;;0.10;0.10;;;9.90;99.90;;;;;;5038260;28;20181;-43
2024/01/02 06:08:04;;;;;;;0.20;0.20;;;9.90;99.90;;;;;;5056352;28;20165;-43
2024/01/02 06:10:33;;;;;;;0.10;0.10;;;9.90;99.90;;;;;;5055975;28;20202;-42
2024/01/02 06:13:01;;;;;;;0.10;0.10;;;10.00;99.90;;;;;;5055860;28;20185;-43
2024/01/02 06:15:29;;;;;;;0.10;0.10;;;10.00;99.90;;;;;;5056016;28;20291;-44
2024/01/02 06:18:06;;;;;;;0.10;0.10;;;10.00;99.90;;;;;;5055791;28;20278;-43
2024/01/02 06:20:31;;;;;;;1.40;0.20;;;10.00;99.90;;;;;;5055720;28;20203;-45
2024/01/02 06:22:57;;;;;;;0.20;0.20;;;10.10;99.90;;;;;;5037976;28;20180;-42
2024/01/02 06:25:22;;;;;;;0.83;0.20;;;10.10;99.90;;;;;;5055791;28;20173;-44
2024/01/02 06:27:54;;;;;;;0.27;0.20;;;10.10;99.90;;;;;;5056191;28;20196;-44
2024/01/02 06:30:22;;;;;;;0.20;0.20;;;10.10;99.90;;;;;;5055663;28;20250;-43
2024/01/02 06:32:51;;;;;;;0.57;0.30;;;10.20;99.90;;;;;;5038134;28;20287;-42
2024/01/02 06:35:17;;;;;;;0.20;0.20;;;10.20;99.90;;;;;;5055700;28;20211;-43
2024/01/02 06:37:44;;;;;;;0.10;0.10;;;10.30;99.90;;;;;;5055460;28;20235;-44
2024/01/02 06:40:10;;;;;;;0.20;0.20;;;10.30;99.90;;;;;;5055548;28;20204;-45
2024/01/02 06:42:37;;;;;;;0.80;0.27;;;10.40;99.90;;;;;;5056003;28;20261;-42
2024/01/02 06:45:04;;;;;;;0.10;0.10;;;10.40;99.90;;;;;;5055344;28;20645;-43
2024/01/02 06:47:32;;;;;;;0.10;0.10;;;10.40;99.90;;;;;;5055635;28;20233;-43
2024/01/02 06:49:58;;;;;;;0.20;0.20;;;10.50;99.90;;;;;;5055243;28;20721;-42
2024/01/02 06:52:24;;;;;;;0.10;0.10;;;10.50;99.90;;;;;;5054706;28;20212;-43
2024/01/02 06:54:50;;;;;;;0.17;0.17;;;10.50;99.90;;;;;;5054658;28;20207;-44
2024/01/02 06:57:15;;;;;;;0.13;0.13;;;10.50;99.90;;;;;;5055073;28;20203;-43
2024/01/02 06:59:44;;;;;;;0.20;0.20;;;10.60;99.90;;;;;;5054927;28;20703;-43
2024/01/02 07:02:16;;;;;;;1.60;0.23;;;10.60;99.90;;;;;;5055350;28;20156;-44
2024/01/02 07:04:48;;;;;;;0.10;0.10;;;10.60;99.90;;;;;;5037303;28;20575;-45
2024/01/02 07:07:14;;;;;;;0.20;0.20;;;10.60;99.90;;;;;;5052872;28;20194;-43
2024/01/02 07:09:44;;;;;;;0.40;0.30;;;10.70;99.90;;;;;;5054907;28;20204;-44
2024/01/02 07:12:12;;;;;;;0.37;0.20;;;10.70;99.90;;;;;;5037651;28;20161;-43
2024/01/02 07:14:37;;;;;;;0.20;0.20;;;10.70;99.90;;;;;;5055011;28;20187;-45
2024/01/02 07:17:09;;;;;;;1.03;0.30;;;10.70;99.90;;;;;;5037190;28;20183;-44
2024/01/02 07:19:35;;;;;;;0.23;0.20;;;10.70;99.90;;;;;;5054043;28;20283;-44
2024/01/02 07:22:01;;;;;;;0.77;0.20;;;10.70;99.90;;;;;;5037593;28;20219;-44
2024/01/02 07:24:31;;;;;;;0.53;0.20;;;10.80;99.90;;;;;;5054915;28;20724;-45
2024/01/02 07:26:56;;;;;;;0.70;0.20;;;10.80;99.90;;;;;;5036935;28;20790;-43
2024/01/02 07:29:23;;;;;;;0.20;0.20;;;10.80;99.90;;;;;;5054656;28;20208;-44
2024/01/02 07:31:49;;;;;;;0.20;0.20;;;10.80;99.90;;;;;;5037636;28;20657;-45
2024/01/02 07:34:15;;;;;;;0.20;0.20;;;10.80;99.90;;;;;;5055942;28;20247;-45
2024/01/02 07:36:42;;;;;;;0.20;0.20;;;10.80;99.90;;;;;;5057892;28;20176;-45
2024/01/02 07:39:15;;;;;;;0.17;0.17;;;10.90;99.90;;;;;;5056561;28;20203;-44
2024/01/02 07:41:41;;;;;;;0.20;0.20;;;10.80;99.90;;;;;;5054181;28;20668;-41
2024/01/02 07:44:07;;;;;;;0.20;0.20;;;10.90;99.90;;;;;;5054541;28;20187;-41
2024/01/02 07:46:36;;;;;;;0.20;0.20;;;10.90;99.90;;;;;;5054421;28;20181;-42
2024/01/02 07:49:57;;;;;;;0.20;0.20;;;10.90;99.90;;;;;;5054177;28;20180;-42
2024/01/02 07:52:23;;;;;;;0.10;0.10;;;10.90;99.90;;;;;;5051663;28;20190;-42
2024/01/02 07:54:48;;;;;;;0.20;0.20;;;10.90;99.90;;;;;;5054056;28;20250;-42
2024/01/02 07:57:15;;;;;;;0.77;0.27;;;10.90;99.90;;;;;;5019677;28;20294;-42
2024/01/02 07:59:41;;;;;;;0.30;0.27;;;10.90;99.90;;;;;;5036463;28;20184;-42
2024/01/02 08:02:07;;;;;;;0.20;0.20;;;10.90;99.90;;;;;;5054236;28;20651;-43
2024/01/02 08:04:35;;;;;;;0.30;0.30;;;11.00;99.90;;;;;;5053583;28;20187;-43
2024/01/02 08:07:01;;;;;;;0.20;0.20;;;11.00;99.90;;;;;;5054099;28;20172;-44
2024/01/02 08:09:30;;;;;;;0.67;0.30;;;11.00;99.90;;;;;;5054109;28;20271;-41
2024/01/02 08:11:56;;;;;;;0.23;0.23;;;11.00;99.90;;;;;;5036822;28;20188;-42
2024/01/02 08:14:22;;;;;;;0.30;0.30;;;11.10;99.90;;;;;;5053810;28;20188;-43
2024/01/02 08:16:51;;;;;;;0.27;0.27;;;11.00;99.90;;;;;;5053963;28;20172;-43
2024/01/02 08:19:18;;;;;;;0.40;0.40;;;11.10;99.90;;;;;;5053905;28;20193;-43
2024/01/02 08:21:44;;;;;;;2.37;0.40;;;11.10;99.90;;;;;;5053536;28;20220;-41
2024/01/02 08:24:11;;;;;;;0.60;0.27;;;11.10;99.90;;;;;;5053781;28;20203;-42
2024/01/02 08:26:38;;;;;;;0.40;0.40;;;11.20;99.90;;;;;;5053728;28;20180;-43
2024/01/02 08:29:38;;;;;;;0.30;0.30;;;11.20;99.90;;;;;;5053649;28;20667;-42
2024/01/02 08:32:05;;;;;;;0.50;0.30;;;11.20;99.90;;;;;;5053405;28;20172;-41
2024/01/02 08:34:34;;;;;;;0.50;0.30;;;11.20;99.90;;;;;;5053644;28;20271;-44
2024/01/02 08:37:01;;;;;;;0.30;0.30;;;11.20;99.90;;;;;;5053495;28;20184;-44
2024/01/02 08:39:26;;;;;;;0.30;0.30;;;11.20;99.90;;;;;;5053126;28;20168;-43
2024/01/02 08:41:57;;;;;;;0.40;0.30;;;11.30;99.90;;;;;;5053304;28;20180;-44
2024/01/02 08:47:48;;;;;;;2.63;0.23;;;11.30;99.90;;;;;;5053315;28;20224;-44
2024/01/02 08:50:18;;;;;;;0.20;0.20;;;11.40;99.90;;;;;;5053094;28;20562;-43
2024/01/02 08:56:07;;;;;;;0.20;0.20;;;11.30;99.90;;;;;;5057471;28;20195;-42
2024/01/02 08:58:33;;;;;;;0.20;0.20;;;11.40;99.90;;;;;;5037173;28;20220;-43
2024/01/02 09:00:59;;;;;;;0.30;0.30;;;11.40;99.90;;;;;;5056272;28;20202;-43
2024/01/02 09:03:26;;;;;;;0.20;0.20;;;11.40;99.90;;;;;;5055987;28;20183;-43
2024/01/02 09:05:51;;;;;;;2.00;0.30;;;11.40;99.90;;;;;;5053898;28;20184;-44
2024/01/02 09:08:17;;;;;;;0.20;0.20;;;11.40;99.90;;;;;;5053316;28;20638;-45
2024/01/02 09:10:43;;;;;;;0.40;0.40;;;11.50;99.90;;;;;;5053320;28;20200;-44
2024/01/02 09:13:09;;;;;;;0.40;0.30;;;11.50;99.90;;;;;;5053653;28;20168;-42
2024/01/02 09:15:35;;;;;;;0.20;0.20;;;11.50;99.90;;;;;;5055394;28;20186;-44
2024/01/02 09:18:04;;;;;;;0.20;0.20;;;11.50;99.90;;;;;;5056948;28;20684;-41
2024/01/02 09:20:30;;;;;;;0.20;0.20;;;11.40;99.90;;;;;;5057077;28;20228;-42
2024/01/02 09:22:57;;;;;;;0.20;0.20;;;11.40;99.90;;;;;;5039575;28;20191;-43
2024/01/02 09:26:09;;;;;;;3.50;0.30;;;11.40;99.90;;;;;;5056969;28;20263;-43
2024/01/02 09:28:42;;;;;;;0.30;0.30;;;11.40;99.90;;;;;;5057294;28;20184;-42
2024/01/02 09:31:08;;;;;;;0.20;0.20;;;11.40;99.90;;;;;;5056314;28;20220;-42
2024/01/02 09:33:38;;;;;;;0.20;0.20;;;11.40;99.90;;;;;;5056611;28;20176;-43
2024/01/02 09:36:10;;;;;;;0.30;0.30;;;11.40;99.90;;;;;;5057099;28;20255;-44
2024/01/02 09:38:39;;;;;;;0.20;0.20;;;11.40;99.90;;;;;;5056927;28;20200;-46
2024/01/02 09:41:44;;;;;;;0.10;0.10;;;11.40;99.90;;;;;;5056292;28;20676;-43
2024/01/02 09:44:42;;;;;;;1.93;0.40;;;11.40;99.90;;;;;;5042946;28;20553;-43
2024/01/02 09:47:46;;;;;;;0.20;0.20;;;11.50;99.90;;;;;;5056729;28;20223;-43
2024/01/02 09:50:31;;;;;;;0.20;0.20;;;11.50;99.90;;;;;;5056256;28;20188;-45
2024/01/02 09:53:21;;;;;;;0.20;0.20;;;11.50;99.90;;;;;;5056423;28;20175;-44
2024/01/02 09:56:18;;;;;;;0.10;0.10;;;11.50;99.90;;;;;;5038772;28;20629;-44
2024/01/02 09:59:32;;;;;;;0.20;0.20;;;11.50;99.90;;;;;;5055566;28;20219;-44
2024/01/02 10:02:36;;;;;;;0.30;0.30;;;11.60;99.90;;;;;;5056195;28;20188;-44
2024/01/02 10:05:46;;;;;;;0.20;0.20;;;11.60;99.90;;;;;;5056101;28;20229;-44
2024/01/02 10:08:50;;;;;;;0.93;0.23;;;11.60;99.90;;;;;;5056210;28;20187;-44
2024/01/02 10:12:24;;;;;;;0.20;0.20;;;11.60;99.90;;;;;;5056104;28;20191;-44
2024/01/02 10:15:29;;;;;;;0.37;0.17;;;11.60;99.90;;;;;;5030786;28;20204;-43
2024/01/02 10:18:02;;;;;;;0.10;0.10;;;11.60;99.90;;;;;;5037926;28;20338;-44
2024/01/02 10:20:42;;;;;;;0.20;0.20;;;11.60;99.90;;;;;;5037341;28;20219;-45
2024/01/02 10:26:45;;;;;;;0.63;0.33;;;11.60;99.90;;;;;;5054786;28;20164;-42
2024/01/02 10:29:25;;;;;;;0.93;0.30;;;11.60;99.90;;;;;;5038413;28;20187;-43
2024/01/02 10:32:20;;;;;;;0.20;0.20;;;11.50;99.90;;;;;;5055155;28;20265;-43
2024/01/02 10:35:05;;;;;;;0.23;0.23;;;11.50;99.90;;;;;;5047777;28;20214;-43
2024/01/02 10:38:07;;;;;;;0.10;0.10;;;11.50;99.90;;;;;;5036797;28;20224;-43
2024/01/02 10:40:40;;;;;;;0.10;0.10;;;11.50;99.90;;;;;;5055643;28;20206;-42
2024/01/02 10:43:30;;;;;;;0.10;0.10;;;11.40;99.90;;;;;;5037911;28;20602;-45
2024/01/02 10:46:13;;;;;;;0.20;0.20;;;11.40;99.90;;;;;;5054506;28;20192;-42
2024/01/02 10:49:07;;;;;;;0.20;0.20;;;11.30;99.90;;;;;;5055944;28;20628;-42
2024/01/02 10:51:40;;;;;;;0.10;0.10;;;11.30;99.90;;;;;;5055664;28;20262;-42
2024/01/02 10:54:16;;;;;;;0.20;0.20;;;11.20;99.90;;;;;;5054528;28;20192;-43
2024/01/02 10:57:05;;;;;;;0.20;0.20;;;11.10;99.90;;;;;;5055364;28;20267;-42
2024/01/02 10:59:47;;;;;;;0.30;0.30;;;11.10;99.90;;;;;;5053795;28;20192;-42
2024/01/02 11:02:23;;;;;;;0.20;0.20;;;11.10;99.90;;;;;;5055390;28;20559;-42
2024/01/02 11:08:48;;;;;;;0.20;0.20;;;11.00;99.90;;;;;;5054918;28;20235;-42
2024/01/02 11:11:18;;;;;;;0.10;0.10;;;11.00;99.90;;;;;;5050475;28;20212;-44
2024/01/02 11:13:50;;;;;;;0.20;0.20;;;10.90;99.90;;;;;;5053793;28;20200;-42
2024/01/02 11:16:19;;;;;;;0.60;0.20;;;10.90;99.90;;;;;;5048468;28;20188;-43
2024/01/02 11:19:09;;;;;;;0.20;0.20;;;11.00;99.90;;;;;;5054187;28;20219;-42
2024/01/02 11:21:57;;;;;;;0.33;0.20;;;10.90;99.90;;;;;;5053889;28;20692;-41
2024/01/02 11:24:40;;;;;;;0.20;0.20;;;10.90;99.90;;;;;;5038684;28;20194;-44
2024/01/02 11:27:09;;;;;;;1.80;0.20;;;10.90;99.90;;;;;;5053514;28;20234;-43
2024/01/02 11:29:53;;;;;;;0.20;0.20;;;10.90;99.90;;;;;;5036844;28;20195;-44
2024/01/02 11:32:44;;;;;;;0.50;0.30;;;10.80;99.90;;;;;;5054396;28;20210;-44
2024/01/02 11:35:11;;;;;;;0.20;0.20;;;10.80;99.90;;;;;;5054816;28;20248;-43
2024/01/02 11:37:40;;;;;;;0.30;0.20;;;10.80;99.90;;;;;;5054429;28;20262;-43
2024/01/02 11:40:23;;;;;;;0.73;0.30;;;10.80;99.90;;;;;;5051924;28;20270;-42
2024/01/02 11:43:25;;;;;;;0.20;0.20;;;10.70;99.90;;;;;;5054574;28;20175;-42
2024/01/02 11:46:03;;;;;;;0.23;0.23;;;10.70;99.90;;;;;;5054177;28;20190;-40
2024/01/02 11:52:07;;;;;;;0.10;0.10;;;10.60;99.90;;;;;;5054216;28;20633;-42
2024/01/02 11:55:02;;;;;;;0.30;0.30;;;10.60;99.90;;;;;;5054259;28;20160;-43
2024/01/02 11:57:51;;;;;;;0.20;0.20;;;10.50;99.90;;;;;;5053958;28;20297;-44
2024/01/02 12:00:41;;;;;;;1.23;0.37;;;10.50;99.90;;;;;;5054284;28;20204;-44
2024/01/02 12:03:31;;;;;;;0.37;0.13;;;10.50;99.90;;;;;;5053870;28;20172;-43
2024/01/02 12:06:04;;;;;;;0.57;0.10;;;10.50;99.90;;;;;;5053481;28;20235;-44
2024/01/02 12:08:39;;;;;;;0.40;0.40;;;10.40;99.90;;;;;;5053947;28;20694;-43
2024/01/02 12:11:09;;;;;;;0.37;0.20;;;10.40;99.90;;;;;;5053066;28;20211;-42
2024/01/02 12:14:01;;;;;;;0.30;0.20;;;10.40;99.90;;;;;;5054758;28;20176;-43
2024/01/02 12:16:36;;;;;;;0.20;0.20;;;10.40;99.90;;;;;;5053592;28;20187;-42
2024/01/02 12:19:06;;;;;;;0.30;0.30;;;10.40;99.90;;;;;;5035298;28;20231;-42
2024/01/02 12:21:33;;;;;;;0.23;0.23;;;10.30;99.90;;;;;;5053705;28;20200;-43
2024/01/02 12:27:23;;;;;;;0.40;0.20;;;10.30;99.90;;;;;;5053576;28;20217;-43
2024/01/02 12:29:55;;;;;;;1.33;0.30;;;10.30;99.90;;;;;;5053388;28;20660;-43
2024/01/02 12:32:54;;;;;;;1.77;0.27;;;10.30;99.90;;;;;;5053218;28;20215;-42
2024/01/02 12:35:35;;;;;;;0.20;0.20;;;10.20;99.90;;;;;;5035579;28;20562;-41
2024/01/02 12:38:25;;;;;;;0.50;0.23;;;10.20;99.90;;;;;;5052260;28;20223;-43
2024/01/02 12:40:56;;;;;;;0.20;0.20;;;10.20;99.90;;;;;;5053836;28;20687;-44
2024/01/02 12:43:38;;;;;;;0.30;0.30;;;10.20;99.90;;;;;;5053272;28;20235;-44
2024/01/02 12:46:17;;;;;;;2.13;0.30;;;10.20;99.90;;;;;;5035404;28;20188;-44
2024/01/02 12:49:14;;;;;;;2.00;0.40;;;10.20;99.90;;;;;;5053572;28;20168;-43
2024/01/02 12:51:46;;;;;;;0.20;0.20;;;10.10;99.90;;;;;;5008949;28;20220;-43
2024/01/02 12:54:21;;;;;;;0.20;0.20;;;10.10;99.90;;;;;;5054839;28;20195;-43
2024/01/02 12:57:00;;;;;;;0.20;0.20;;;10.10;99.90;;;;;;5055244;28;20257;-43
2024/01/02 12:59:29;;;;;;;0.20;0.20;;;10.10;99.90;;;;;;5039036;28;20207;-42
2024/01/02 13:01:56;;;;;;;0.20;0.20;;;10.10;99.90;;;;;;5053085;28;20633;-44
2024/01/02 13:04:21;;;;;;;0.43;0.20;;;10.10;99.90;;;;;;5053811;28;20219;-43
2024/01/02 13:06:47;;;;;;;0.20;0.20;;;10.10;99.90;;;;;;5053529;28;20207;-43
2024/01/02 13:09:19;;;;;;;0.20;0.20;;;10.10;99.90;;;;;;5053188;28;20579;-44
2024/01/02 13:11:46;;;;;;;0.20;0.20;;;10.10;99.90;;;;;;5053123;28;20566;-41
2024/01/02 13:14:12;;;;;;;0.20;0.20;;;10.20;99.90;;;;;;5052821;28;20194;-43
2024/01/02 13:16:41;;;;;;;0.20;0.20;;;10.20;99.90;;;;;;5052965;28;20267;-44
2024/01/02 13:19:14;;;;;;;0.60;0.30;;;10.20;99.90;;;;;;5053106;28;20318;-42
2024/01/02 13:21:44;;;;;;;0.30;0.30;;;10.20;99.90;;;;;;5052719;28;20295;-42
2024/01/02 13:24:11;;;;;;;2.73;0.63;;;10.20;99.90;;;;;;5036124;28;20176;-43
2024/01/02 13:26:43;;;;;;;0.30;0.30;;;10.20;99.90;;;;;;5053243;28;20156;-42
2024/01/02 13:29:16;;;;;;;0.43;0.27;;;10.20;99.90;;;;;;5053355;28;20184;-44
2024/01/02 13:31:47;;;;;;;0.20;0.20;;;10.20;99.90;;;;;;5052748;28;20683;-42
2024/01/02 13:34:27;;;;;;;0.23;0.23;;;10.30;99.90;;;;;;5052960;28;20226;-44
2024/01/02 13:36:56;;;;;;;0.30;0.30;;;10.30;99.90;;;;;;5052309;28;20648;-42
2024/01/02 13:39:39;;;;;;;0.10;0.10;;;10.30;99.90;;;;;;5052827;28;20208;-43
2024/01/02 13:42:07;;;;;;;0.20;0.20;;;10.40;99.90;;;;;;5053698;28;20184;-43
2024/01/02 13:44:37;;;;;;;0.20;0.20;;;10.40;99.90;;;;;;5052847;28;20226;-41